createdAt,value
2018-12-29T00:00:41.896Z,21.97
2018-12-29T00:03:10.411Z,22.53
2018-12-29T00:05:38.960Z,22.20
2018-12-29T00:08:07.452Z,22.23
2018-12-29T00:10:35.929Z,22.57
2018-12-29T00:13:04.421Z,23.77
2018-12-29T00:15:32.986Z,19.47
2018-12-29T00:18:01.503Z,21.10
2018-12-29T00:20:30.052Z,20.40
2018-12-29T00:22:58.532Z,21.80
2018-12-29T00:25:27.105Z,21.40
2018-12-29T00:27:55.572Z,23.03
2018-12-29T00:30:24.067Z,21.47
2018-12-29T00:32:52.869Z,22.47
2018-12-29T00:35:21.474Z,23.33
2018-12-29T00:37:49.945Z,21.33
2018-12-29T00:40:18.409Z,21.67
2018-12-29T00:42:46.861Z,23.27
2018-12-29T00:45:15.339Z,22.03
2018-12-29T00:47:43.819Z,23.10
2018-12-29T00:50:12.370Z,22.80
2018-12-29T00:52:40.977Z,24.13
2018-12-29T00:55:09.493Z,21.10
2018-12-29T00:57:38.029Z,24.10
2018-12-29T01:00:07.547Z,23.67
2018-12-29T01:02:36.063Z,24.13
2018-12-29T01:05:04.817Z,25.17
2018-12-29T01:07:33.350Z,27.50
2018-12-29T01:10:01.836Z,23.30
2018-12-29T01:12:30.289Z,24.70
2018-12-29T01:14:58.737Z,24.53
2018-12-29T01:17:27.211Z,23.93
2018-12-29T01:19:55.734Z,25.80
2018-12-29T01:22:24.254Z,22.13
2018-12-29T01:24:52.758Z,24.90
2018-12-29T01:27:21.257Z,24.33
2018-12-29T01:29:49.691Z,24.57
2018-12-29T01:32:18.185Z,24.70
2018-12-29T01:34:46.647Z,24.20
2018-12-29T01:37:15.156Z,24.50
2018-12-29T01:39:43.660Z,26.07
2018-12-29T01:42:12.163Z,27.20
2018-12-29T01:44:40.660Z,25.47
2018-12-29T01:47:09.186Z,25.93
2018-12-29T01:49:37.692Z,25.27
2018-12-29T01:52:06.226Z,26.03
2018-12-29T01:54:34.689Z,26.23
2018-12-29T01:57:03.150Z,27.20
2018-12-29T01:59:31.671Z,27.47
2018-12-29T02:02:00.238Z,29.20
2018-12-29T02:04:28.746Z,27.70
2018-12-29T02:06:57.197Z,26.90
2018-12-29T02:09:25.675Z,27.17
2018-12-29T02:11:54.167Z,27.70
2018-12-29T02:14:22.665Z,27.30
2018-12-29T02:16:51.194Z,31.27
2018-12-29T02:19:19.712Z,30.57
2018-12-29T02:21:48.284Z,28.60
2018-12-29T02:24:16.758Z,30.70
2018-12-29T02:26:45.280Z,27.03
2018-12-29T02:29:13.790Z,30.00
2018-12-29T02:31:42.267Z,31.80
2018-12-29T02:34:10.822Z,31.30
2018-12-29T02:36:39.330Z,31.50
2018-12-29T02:39:07.883Z,31.47
2018-12-29T02:41:36.337Z,30.73
2018-12-29T02:44:04.962Z,31.80
2018-12-29T02:46:33.447Z,30.77
2018-12-29T02:49:01.983Z,31.40
2018-12-29T02:51:30.595Z,28.87
2018-12-29T02:53:59.152Z,33.37
2018-12-29T02:56:27.770Z,28.53
2018-12-29T02:58:56.243Z,30.80
2018-12-29T03:01:24.846Z,32.43
2018-12-29T03:03:53.305Z,33.57
2018-12-29T03:06:21.863Z,31.10
2018-12-29T03:08:50.323Z,32.50
2018-12-29T03:11:18.790Z,31.20
2018-12-29T03:13:47.259Z,33.23
2018-12-29T03:16:15.738Z,30.80
2018-12-29T03:18:44.204Z,29.97
2018-12-29T03:21:12.693Z,32.53
2018-12-29T03:23:41.224Z,29.63
2018-12-29T03:26:09.782Z,31.87
2018-12-29T03:28:38.296Z,31.27
2018-12-29T03:31:06.854Z,28.07
2018-12-29T03:33:35.330Z,32.47
2018-12-29T03:36:03.833Z,32.07
2018-12-29T03:38:32.359Z,31.60
2018-12-29T03:41:00.931Z,31.60
2018-12-29T03:43:29.393Z,30.57
2018-12-29T03:45:57.877Z,28.90
2018-12-29T03:48:26.354Z,31.20
2018-12-29T03:50:54.918Z,29.60
2018-12-29T03:53:23.582Z,31.93
2018-12-29T03:55:52.054Z,32.33
2018-12-29T03:58:20.537Z,31.03
2018-12-29T04:00:49.020Z,29.50
2018-12-29T04:03:17.513Z,29.67
2018-12-29T04:05:46.055Z,31.23
2018-12-29T04:08:14.560Z,30.20
2018-12-29T04:10:43.018Z,30.97
2018-12-29T04:13:11.523Z,30.17
2018-12-29T04:15:40.048Z,31.73
2018-12-29T04:18:08.604Z,29.30
2018-12-29T04:20:37.078Z,31.83
2018-12-29T04:23:05.595Z,29.27
2018-12-29T04:25:34.146Z,29.93
2018-12-29T04:28:02.690Z,32.30
2018-12-29T04:30:31.243Z,29.87
2018-12-29T04:32:59.783Z,29.43
2018-12-29T04:35:28.340Z,29.47
2018-12-29T04:37:56.837Z,31.50
2018-12-29T04:40:25.377Z,28.37
2018-12-29T04:42:53.882Z,30.83
2018-12-29T04:45:22.417Z,31.20
2018-12-29T04:47:50.870Z,29.40
2018-12-29T04:50:19.355Z,29.57
2018-12-29T04:52:47.832Z,30.57
2018-12-29T04:55:16.370Z,29.00
2018-12-29T04:57:44.840Z,30.03
2018-12-29T05:00:13.468Z,29.13
2018-12-29T05:02:41.997Z,28.67
2018-12-29T05:05:10.576Z,29.80
2018-12-29T05:07:39.117Z,33.93
2018-12-29T05:10:07.750Z,32.67
2018-12-29T05:12:36.221Z,31.50
2018-12-29T05:15:05.172Z,30.67
2018-12-29T05:17:33.702Z,31.50
2018-12-29T05:20:02.209Z,31.13
2018-12-29T05:22:30.674Z,30.87
2018-12-29T05:24:59.179Z,32.37
2018-12-29T05:27:28.619Z,29.50
2018-12-29T05:29:58.275Z,29.83
2018-12-29T05:32:26.772Z,28.67
2018-12-29T05:34:55.318Z,32.30
2018-12-29T05:37:23.802Z,38.87
2018-12-29T05:39:52.250Z,33.20
2018-12-29T05:42:20.866Z,33.37
2018-12-29T05:44:49.405Z,32.50
2018-12-29T05:47:17.910Z,31.43
2018-12-29T05:49:46.429Z,30.20
2018-12-29T05:52:14.935Z,30.20
2018-12-29T05:54:43.460Z,32.40
2018-12-29T05:57:11.967Z,30.20
2018-12-29T05:59:40.479Z,28.90
2018-12-29T06:02:08.973Z,29.50
2018-12-29T06:04:37.451Z,27.83
2018-12-29T06:07:05.940Z,30.40
2018-12-29T06:09:34.416Z,29.97
2018-12-29T06:12:02.903Z,29.67
2018-12-29T06:14:31.374Z,29.70
2018-12-29T06:16:59.943Z,29.77
2018-12-29T06:19:28.450Z,28.67
2018-12-29T06:21:56.946Z,30.17
2018-12-29T06:24:25.478Z,29.30
2018-12-29T06:26:53.944Z,30.67
2018-12-29T06:29:22.408Z,30.67
2018-12-29T06:31:50.902Z,30.97
2018-12-29T06:34:19.453Z,32.20
2018-12-29T06:36:47.973Z,29.20
2018-12-29T06:39:16.487Z,28.93
2018-12-29T06:41:44.936Z,30.67
2018-12-29T06:44:13.455Z,26.80
2018-12-29T06:46:41.983Z,27.40
2018-12-29T06:49:10.708Z,30.20
2018-12-29T06:51:39.264Z,29.70
2018-12-29T06:54:08.147Z,29.50
2018-12-29T06:56:36.579Z,28.33
2018-12-29T06:59:05.129Z,29.40
2018-12-29T07:01:33.564Z,28.17
2018-12-29T07:04:02.217Z,29.10
2018-12-29T07:06:30.759Z,31.10
2018-12-29T07:09:00.309Z,29.07
2018-12-29T07:11:28.766Z,30.20
2018-12-29T07:13:57.339Z,31.40
2018-12-29T07:16:26.044Z,32.23
2018-12-29T07:18:54.513Z,30.03
2018-12-29T07:21:23.231Z,29.30
2018-12-29T07:23:51.961Z,32.40
2018-12-29T07:26:20.551Z,30.20
2018-12-29T07:28:49.068Z,31.20
2018-12-29T07:31:17.650Z,29.30
2018-12-29T07:33:46.301Z,29.93
2018-12-29T07:36:14.845Z,28.17
2018-12-29T07:38:43.402Z,31.10
2018-12-29T07:41:12.015Z,30.30
2018-12-29T07:43:40.540Z,31.90
2018-12-29T07:46:09.018Z,28.70
2018-12-29T07:48:37.473Z,32.30
2018-12-29T07:51:05.973Z,30.40
2018-12-29T07:53:34.749Z,31.27
2018-12-29T07:56:03.459Z,29.63
2018-12-29T07:58:32.098Z,29.57
2018-12-29T08:01:00.711Z,29.63
2018-12-29T08:03:29.194Z,30.33
2018-12-29T08:05:57.733Z,33.07
2018-12-29T08:08:26.391Z,30.87
2018-12-29T08:10:54.860Z,31.30
2018-12-29T08:13:23.300Z,29.27
2018-12-29T08:15:52.105Z,29.20
2018-12-29T08:18:20.632Z,31.00
2018-12-29T08:20:49.202Z,30.70
2018-12-29T08:23:17.658Z,32.10
2018-12-29T08:25:46.442Z,31.37
2018-12-29T08:28:14.923Z,31.30
2018-12-29T08:30:43.550Z,31.57
2018-12-29T08:33:12.138Z,31.90
2018-12-29T08:35:40.683Z,31.57
2018-12-29T08:38:09.161Z,31.20
2018-12-29T08:40:37.661Z,30.57
2018-12-29T08:43:06.227Z,30.50
2018-12-29T08:45:34.932Z,30.83
2018-12-29T08:48:03.483Z,32.20
2018-12-29T08:50:32.054Z,30.70
2018-12-29T08:53:00.799Z,31.63
2018-12-29T08:55:30.066Z,31.90
2018-12-29T08:57:58.755Z,30.10
2018-12-29T09:00:27.288Z,31.70
2018-12-29T09:02:55.878Z,30.80
2018-12-29T09:05:24.579Z,31.60
2018-12-29T09:07:53.077Z,31.67
2018-12-29T09:10:21.606Z,30.33
2018-12-29T09:12:50.088Z,31.40
2018-12-29T09:15:18.663Z,29.80
2018-12-29T09:17:47.151Z,31.57
2018-12-29T09:20:16.005Z,28.43
2018-12-29T09:22:44.556Z,29.37
2018-12-29T09:25:13.262Z,29.70
2018-12-29T09:27:41.798Z,31.23
2018-12-29T09:30:10.422Z,30.57
2018-12-29T09:32:38.875Z,31.93
2018-12-29T09:35:07.330Z,30.87
2018-12-29T09:37:35.968Z,33.27
2018-12-29T09:40:05.367Z,32.70
2018-12-29T09:42:34.061Z,32.37
2018-12-29T09:45:02.532Z,33.90
2018-12-29T09:47:31.041Z,33.10
2018-12-29T09:49:59.603Z,30.73
2018-12-29T09:52:28.402Z,30.07
2018-12-29T09:54:57.104Z,29.87
2018-12-29T09:57:25.659Z,27.50
2018-12-29T09:59:59.078Z,28.50
2018-12-29T10:02:27.787Z,28.97
2018-12-29T10:04:56.270Z,26.90
2018-12-29T10:07:24.793Z,27.07
2018-12-29T10:09:53.361Z,26.00
2018-12-29T10:12:21.825Z,27.90
2018-12-29T10:14:50.336Z,25.70
2018-12-29T10:17:18.890Z,24.90
2018-12-29T10:19:47.375Z,24.70
2018-12-29T10:22:15.834Z,24.70
2018-12-29T10:24:44.343Z,23.80
2018-12-29T10:27:12.825Z,24.00
2018-12-29T10:29:41.337Z,25.73
2018-12-29T10:32:09.783Z,25.00
2018-12-29T10:34:38.333Z,24.40
2018-12-29T10:37:15.067Z,24.97
2018-12-29T10:39:44.397Z,27.50
2018-12-29T10:42:12.846Z,27.30
2018-12-29T10:44:41.312Z,25.27
2018-12-29T10:47:09.784Z,47.00
2018-12-29T10:49:38.262Z,27.40
2018-12-29T10:52:08.827Z,26.90
2018-12-29T10:54:37.288Z,26.57
2018-12-29T10:57:05.780Z,25.90
2018-12-29T10:59:34.303Z,22.80
2018-12-29T11:02:02.778Z,23.63
2018-12-29T11:04:31.246Z,20.80
2018-12-29T11:06:59.772Z,22.80
2018-12-29T11:09:28.248Z,22.57
2018-12-29T11:11:56.707Z,22.00
2018-12-29T11:14:25.200Z,24.03
2018-12-29T11:16:53.829Z,24.13
2018-12-29T11:19:22.373Z,31.57
2018-12-29T11:21:50.917Z,29.03
2018-12-29T11:24:19.394Z,27.97
2018-12-29T11:26:47.860Z,21.80
2018-12-29T11:29:16.330Z,22.00
2018-12-29T11:31:44.857Z,23.73
2018-12-29T11:34:13.380Z,28.83
2018-12-29T11:36:41.960Z,27.50
2018-12-29T11:39:10.383Z,31.63
2018-12-29T11:41:38.831Z,25.57
2018-12-29T11:44:07.323Z,23.47
2018-12-29T11:46:35.870Z,27.30
2018-12-29T11:49:04.484Z,32.80
2018-12-29T11:51:33.010Z,26.93
2018-12-29T11:54:01.581Z,31.73
2018-12-29T11:56:30.075Z,47.50
2018-12-29T11:58:58.652Z,29.30
2018-12-29T12:01:27.158Z,24.13
2018-12-29T12:03:55.708Z,25.67
2018-12-29T12:06:24.222Z,23.77
2018-12-29T12:08:52.763Z,24.13
2018-12-29T12:11:21.206Z,24.30
2018-12-29T12:13:49.696Z,23.87
2018-12-29T12:16:18.355Z,25.47
2018-12-29T12:18:46.839Z,22.70
2018-12-29T12:21:15.309Z,25.07
2018-12-29T12:23:43.850Z,24.57
2018-12-29T12:26:12.374Z,23.70
2018-12-29T12:28:40.958Z,23.80
2018-12-29T12:31:09.394Z,22.63
2018-12-29T12:33:37.963Z,23.13
2018-12-29T12:36:06.455Z,25.00
2018-12-29T12:38:34.998Z,24.43
2018-12-29T12:41:03.485Z,26.00
2018-12-29T12:43:31.992Z,23.30
2018-12-29T12:46:01.019Z,22.40
2018-12-29T12:48:29.535Z,24.07
2018-12-29T12:50:58.296Z,25.70
2018-12-29T12:53:26.855Z,24.60
2018-12-29T12:55:55.425Z,23.97
2018-12-29T12:58:24.282Z,24.27
2018-12-29T13:00:53.114Z,22.53
2018-12-29T13:03:22.048Z,24.50
2018-12-29T13:05:51.011Z,25.80
2018-12-29T13:08:19.529Z,24.27
2018-12-29T13:10:48.003Z,23.87
2018-12-29T13:13:16.540Z,24.10
2018-12-29T13:15:45.076Z,22.70
2018-12-29T13:18:13.922Z,21.97
2018-12-29T13:20:42.483Z,24.07
2018-12-29T13:23:10.968Z,23.23
2018-12-29T13:25:39.507Z,24.03
2018-12-29T13:28:07.949Z,26.03
2018-12-29T13:30:36.674Z,21.63
2018-12-29T13:33:05.496Z,23.47
2018-12-29T13:35:34.969Z,23.83
2018-12-29T13:38:03.445Z,22.17
2018-12-29T13:40:31.915Z,21.93
2018-12-29T13:43:00.563Z,22.00
2018-12-29T13:45:29.087Z,22.40
2018-12-29T13:47:57.630Z,21.00
2018-12-29T13:50:26.224Z,23.37
2018-12-29T13:52:54.695Z,21.13
2018-12-29T13:55:23.249Z,22.13
2018-12-29T13:57:51.815Z,21.80
2018-12-29T14:00:20.349Z,20.03
2018-12-29T14:02:48.875Z,23.40
2018-12-29T14:05:17.424Z,20.40
2018-12-29T14:07:45.905Z,19.17
2018-12-29T14:10:14.432Z,19.80
2018-12-29T14:12:44.862Z,20.70
2018-12-29T14:15:13.313Z,24.10
2018-12-29T14:17:41.843Z,22.00
2018-12-29T14:20:10.372Z,19.77
2018-12-29T14:22:38.827Z,20.10
2018-12-29T14:25:07.400Z,21.30
2018-12-29T14:27:35.943Z,20.60
2018-12-29T14:30:05.144Z,19.80
2018-12-29T14:32:33.708Z,18.90
2018-12-29T14:35:02.263Z,18.67
2018-12-29T14:37:30.727Z,18.27
2018-12-29T14:39:59.267Z,18.67
2018-12-29T14:42:27.791Z,20.00
2018-12-29T14:44:56.336Z,19.70
2018-12-29T14:47:24.783Z,19.10
2018-12-29T14:49:53.323Z,18.07
2018-12-29T14:52:21.795Z,17.03
2018-12-29T14:54:50.578Z,16.33
2018-12-29T14:57:19.082Z,17.20
2018-12-29T14:59:47.545Z,16.33
2018-12-29T15:02:16.072Z,17.87
2018-12-29T15:04:44.625Z,15.40
2018-12-29T15:07:13.455Z,16.40
2018-12-29T15:09:41.928Z,16.33
2018-12-29T15:12:10.466Z,21.00
2018-12-29T15:14:38.964Z,41.50
2018-12-29T15:17:07.501Z,18.17
2018-12-29T15:19:36.042Z,15.77
2018-12-29T15:22:04.519Z,15.43
2018-12-29T15:24:33.440Z,18.40
2018-12-29T15:27:01.921Z,18.60
2018-12-29T15:29:30.442Z,18.17
2018-12-29T15:31:59.023Z,18.03
2018-12-29T15:34:27.551Z,15.63
2018-12-29T15:36:56.116Z,17.57
2018-12-29T15:39:25.073Z,17.33
2018-12-29T15:41:53.632Z,17.80
2018-12-29T15:44:22.993Z,18.03
2018-12-29T15:46:52.865Z,16.67
2018-12-29T15:49:21.381Z,15.43
2018-12-29T15:51:49.934Z,15.90
2018-12-29T15:54:18.458Z,17.17
2018-12-29T15:56:46.940Z,17.13
2018-12-29T15:59:15.491Z,17.60
2018-12-29T16:01:44.033Z,17.30
2018-12-29T16:04:12.583Z,16.77
2018-12-29T16:06:41.146Z,17.13
2018-12-29T16:09:09.690Z,17.50
2018-12-29T16:11:38.661Z,17.73
2018-12-29T16:14:07.152Z,16.40
2018-12-29T16:16:35.622Z,17.90
2018-12-29T16:19:04.171Z,16.90
2018-12-29T16:21:32.735Z,17.70
2018-12-29T16:24:01.282Z,17.37
2018-12-29T16:26:29.813Z,16.33
2018-12-29T16:28:58.404Z,14.97
2018-12-29T16:31:26.903Z,13.47
2018-12-29T16:33:55.373Z,17.10
2018-12-29T16:36:23.895Z,18.37
2018-12-29T16:38:52.396Z,17.70
2018-12-29T16:41:20.918Z,16.17
2018-12-29T16:43:49.818Z,15.57
2018-12-29T16:46:18.512Z,17.07
2018-12-29T16:48:47.058Z,18.20
2018-12-29T16:51:15.792Z,17.10
2018-12-29T16:53:46.638Z,16.60
2018-12-29T16:56:15.186Z,16.67
2018-12-29T16:58:44.736Z,18.53
2018-12-29T17:01:13.278Z,19.03
2018-12-29T17:03:42.061Z,19.20
2018-12-29T17:06:10.592Z,19.17
2018-12-29T17:08:41.303Z,18.83
2018-12-29T17:11:09.826Z,16.67
2018-12-29T17:13:38.657Z,18.10
2018-12-29T17:16:07.217Z,17.80
2018-12-29T17:18:35.751Z,18.00
2018-12-29T17:21:04.604Z,17.90
2018-12-29T17:23:33.056Z,20.17
2018-12-29T17:26:01.650Z,19.60
2018-12-29T17:28:30.381Z,18.70
2018-12-29T17:30:58.847Z,16.77
2018-12-29T17:33:27.354Z,18.77
2018-12-29T17:35:55.913Z,17.27
2018-12-29T17:38:24.514Z,15.90
2018-12-29T17:40:53.079Z,15.60
2018-12-29T17:43:21.646Z,14.50
2018-12-29T17:45:50.149Z,16.20
2018-12-29T17:48:18.710Z,15.50
2018-12-29T17:50:47.305Z,15.07
2018-12-29T17:53:16.096Z,14.57
2018-12-29T17:55:44.804Z,14.47
2018-12-29T17:58:13.302Z,16.10
2018-12-29T18:00:41.970Z,13.53
2018-12-29T18:03:10.638Z,12.13
2018-12-29T18:05:39.207Z,14.47
2018-12-29T18:08:07.732Z,14.57
2018-12-29T18:10:36.329Z,14.37
2018-12-29T18:13:04.888Z,15.07
2018-12-29T18:15:33.412Z,16.53
2018-12-29T18:18:02.071Z,16.13
2018-12-29T18:20:30.560Z,15.73
2018-12-29T18:22:59.116Z,14.17
2018-12-29T18:25:27.636Z,16.87
2018-12-29T18:27:56.204Z,16.60
2018-12-29T18:30:24.745Z,14.10
2018-12-29T18:32:53.293Z,15.63
2018-12-29T18:35:21.831Z,14.80
2018-12-29T18:37:50.376Z,14.73
2018-12-29T18:40:18.835Z,13.80
2018-12-29T18:42:47.789Z,11.10
2018-12-29T18:45:16.316Z,12.97
2018-12-29T18:47:44.888Z,12.43
2018-12-29T18:50:13.433Z,10.90
2018-12-29T18:52:41.982Z,14.20
2018-12-29T18:55:10.775Z,10.30
2018-12-29T18:57:39.322Z,11.40
2018-12-29T19:00:07.995Z,13.70
2018-12-29T19:02:36.547Z,10.70
2018-12-29T19:05:05.444Z,13.30
2018-12-29T19:07:33.971Z,11.50
2018-12-29T19:10:02.728Z,10.60
2018-12-29T19:12:31.483Z,11.23
2018-12-29T19:15:00.091Z,11.07
2018-12-29T19:17:29.008Z,10.63
2018-12-29T19:19:57.835Z,12.17
2018-12-29T19:22:26.366Z,11.50
2018-12-29T19:24:54.921Z,10.87
2018-12-29T19:27:23.446Z,10.57
2018-12-29T19:29:52.014Z,10.10
2018-12-29T19:32:20.537Z,9.27
2018-12-29T19:34:49.379Z,8.70
2018-12-29T19:37:18.108Z,9.90
2018-12-29T19:39:46.642Z,9.03
2018-12-29T19:42:15.205Z,8.87
2018-12-29T19:44:43.746Z,9.10
2018-12-29T19:47:12.602Z,8.50
2018-12-29T19:49:41.137Z,8.70
2018-12-29T19:52:09.680Z,8.03
2018-12-29T19:54:38.213Z,7.30
2018-12-29T19:57:08.011Z,8.03
2018-12-29T19:59:36.642Z,7.43
2018-12-29T20:02:05.111Z,7.40
2018-12-29T20:04:33.654Z,6.73
2018-12-29T20:07:02.594Z,6.27
2018-12-29T20:09:31.135Z,6.10
2018-12-29T20:11:59.867Z,5.67
2018-12-29T20:14:28.319Z,6.70
2018-12-29T20:16:56.783Z,6.10
2018-12-29T20:19:25.259Z,6.20
2018-12-29T20:21:53.824Z,7.03
2018-12-29T20:24:22.563Z,6.73
2018-12-29T20:26:51.135Z,5.10
2018-12-29T20:29:19.659Z,7.50
2018-12-29T20:31:48.147Z,7.23
2018-12-29T20:34:16.670Z,6.90
2018-12-29T20:36:45.505Z,7.23
2018-12-29T20:39:13.993Z,8.00
2018-12-29T20:41:42.593Z,6.37
2018-12-29T20:44:11.130Z,7.70
2018-12-29T20:46:39.670Z,7.50
2018-12-29T20:49:08.230Z,8.87
2018-12-29T20:51:36.773Z,5.57
2018-12-29T20:54:05.333Z,6.63
2018-12-29T20:56:33.870Z,8.87
2018-12-29T20:59:02.424Z,7.20
2018-12-29T21:01:30.958Z,7.13
2018-12-29T21:03:59.704Z,6.50
2018-12-29T21:06:28.225Z,6.40
2018-12-29T21:08:56.760Z,5.60
2018-12-29T21:11:25.295Z,6.00
2018-12-29T21:13:53.870Z,6.30
2018-12-29T21:16:22.410Z,6.07
2018-12-29T21:18:51.059Z,5.40
2018-12-29T21:21:19.567Z,6.00
2018-12-29T21:23:48.059Z,5.40
2018-12-29T21:26:16.602Z,5.00
2018-12-29T21:28:45.153Z,5.23
2018-12-29T21:31:13.707Z,6.27
2018-12-29T21:33:42.261Z,5.40
2018-12-29T21:36:10.800Z,5.90
2018-12-29T21:38:39.370Z,5.50
2018-12-29T21:41:07.883Z,5.07
2018-12-29T21:43:36.452Z,5.30
2018-12-29T21:46:05.363Z,4.47
2018-12-29T21:48:33.902Z,4.07
2018-12-29T21:51:02.433Z,4.47
2018-12-29T21:53:30.975Z,5.20
2018-12-29T21:55:59.530Z,4.57
2018-12-29T21:58:27.991Z,4.53
2018-12-29T22:00:56.597Z,4.50
2018-12-29T22:03:25.172Z,4.90
2018-12-29T22:05:53.791Z,5.40
2018-12-29T22:08:22.322Z,5.33
2018-12-29T22:10:50.888Z,6.47
2018-12-29T22:13:19.628Z,5.20
2018-12-29T22:15:49.130Z,5.60
2018-12-29T22:18:17.728Z,5.40
2018-12-29T22:20:46.272Z,6.30
2018-12-29T22:23:14.830Z,5.83
2018-12-29T22:25:48.242Z,6.47
2018-12-29T22:28:13.542Z,7.20
2018-12-29T22:30:42.101Z,6.20
2018-12-29T22:33:10.636Z,6.20
2018-12-29T22:35:39.202Z,7.57
2018-12-29T22:38:07.702Z,6.53
2018-12-29T22:40:36.524Z,7.90
2018-12-29T22:43:05.077Z,6.83
2018-12-29T22:45:33.633Z,8.50
2018-12-29T22:48:02.171Z,9.00
2018-12-29T22:50:30.706Z,7.90
2018-12-29T22:52:59.255Z,8.87
2018-12-29T22:55:27.785Z,8.70
2018-12-29T22:57:56.336Z,8.33
2018-12-29T23:00:26.583Z,8.83
2018-12-29T23:02:55.159Z,9.10
2018-12-29T23:05:23.970Z,9.77
2018-12-29T23:07:52.520Z,8.97
2018-12-29T23:10:21.124Z,9.53
2018-12-29T23:12:49.983Z,8.80
2018-12-29T23:15:18.524Z,8.17
2018-12-29T23:17:47.092Z,9.10
2018-12-29T23:20:15.641Z,9.37
2018-12-29T23:22:44.209Z,10.40
2018-12-29T23:25:12.777Z,8.67
2018-12-29T23:27:41.634Z,8.80
2018-12-29T23:30:10.190Z,9.07
2018-12-29T23:32:39.013Z,7.50
2018-12-29T23:35:07.626Z,8.90
2018-12-29T23:37:36.157Z,7.97
2018-12-29T23:40:05.955Z,9.20
2018-12-29T23:42:34.473Z,6.20
2018-12-29T23:45:03.047Z,8.40
2018-12-29T23:47:31.941Z,9.47
2018-12-29T23:50:00.506Z,9.17
2018-12-29T23:52:29.074Z,9.37
2018-12-29T23:54:57.608Z,8.60
2018-12-29T23:57:26.065Z,8.53
2018-12-29T23:59:54.919Z,8.93
